createdAt,value
2017-07-17T00:02:02.939Z,57.70
2017-07-17T00:04:31.830Z,57.80
2017-07-17T00:07:00.715Z,57.90
2017-07-17T00:09:30.358Z,58.10
2017-07-17T00:11:59.225Z,58.00
2017-07-17T00:14:28.105Z,58.30
2017-07-17T00:16:57.766Z,58.60
2017-07-17T00:19:26.662Z,58.60
2017-07-17T00:21:55.554Z,58.90
2017-07-17T00:24:24.444Z,59.10
2017-07-17T00:26:53.338Z,59.20
2017-07-17T00:29:22.208Z,59.40
2017-07-17T00:31:51.076Z,59.50
2017-07-17T00:34:19.958Z,59.50
2017-07-17T00:36:49.617Z,59.60
2017-07-17T00:39:18.500Z,59.60
2017-07-17T00:41:47.367Z,59.70
2017-07-17T00:44:16.241Z,59.70
2017-07-17T00:46:45.895Z,59.80
2017-07-17T00:49:14.786Z,59.80
2017-07-17T00:51:43.667Z,60.00
2017-07-17T00:54:12.519Z,60.10
2017-07-17T00:56:42.123Z,60.40
2017-07-17T00:59:11.001Z,60.30
2017-07-17T01:01:39.885Z,60.50
2017-07-17T01:04:08.769Z,60.60
2017-07-17T01:06:37.653Z,60.80
2017-07-17T01:09:06.530Z,61.00
2017-07-17T01:11:35.399Z,61.20
2017-07-17T01:14:04.277Z,61.30
2017-07-17T01:16:33.925Z,61.90
2017-07-17T01:19:02.803Z,61.70
2017-07-17T01:21:31.687Z,62.30
2017-07-17T01:24:00.569Z,62.70
2017-07-17T01:26:29.453Z,62.90
2017-07-17T01:28:59.093Z,62.90
2017-07-17T01:31:27.975Z,62.80
2017-07-17T01:33:56.853Z,62.90
2017-07-17T01:36:25.741Z,63.00
2017-07-17T01:38:54.634Z,63.00
2017-07-17T01:41:23.529Z,62.90
2017-07-17T01:43:52.414Z,63.00
2017-07-17T01:46:21.275Z,63.20
2017-07-17T01:48:50.163Z,64.10
2017-07-17T01:51:18.686Z,63.40
2017-07-17T01:53:47.584Z,63.40
2017-07-17T01:56:16.482Z,63.40
2017-07-17T01:58:45.370Z,63.50
2017-07-17T02:01:14.250Z,63.50
2017-07-17T02:03:43.125Z,63.80
2017-07-17T02:06:12.780Z,64.30
2017-07-17T02:08:41.661Z,63.60
2017-07-17T02:11:10.549Z,63.80
2017-07-17T02:13:39.414Z,63.90
2017-07-17T02:16:09.024Z,64.00
2017-07-17T02:18:38.664Z,63.90
2017-07-17T02:21:07.544Z,63.80
2017-07-17T02:23:36.411Z,63.70
2017-07-17T02:26:06.052Z,63.80
2017-07-17T02:28:34.945Z,63.70
2017-07-17T02:31:03.822Z,63.90
2017-07-17T02:33:32.718Z,63.90
2017-07-17T02:36:01.556Z,63.90
2017-07-17T02:38:30.436Z,64.00
2017-07-17T02:40:59.327Z,64.10
2017-07-17T02:43:28.176Z,64.10
2017-07-17T02:45:57.044Z,64.30
2017-07-17T02:48:26.646Z,64.00
2017-07-17T02:50:55.536Z,64.50
2017-07-17T02:53:24.421Z,64.60
2017-07-17T02:55:53.293Z,64.70
2017-07-17T02:58:22.141Z,64.90
2017-07-17T03:00:50.999Z,65.00
2017-07-17T03:03:19.885Z,65.00
2017-07-17T03:05:48.766Z,65.10
2017-07-17T03:08:17.622Z,65.10
2017-07-17T03:10:46.470Z,65.20
2017-07-17T03:13:15.315Z,65.40
2017-07-17T03:15:44.212Z,65.50
2017-07-17T03:18:13.073Z,65.40
2017-07-17T03:20:41.966Z,65.60
2017-07-17T03:23:10.644Z,65.70
2017-07-17T03:28:19.844Z,66.00
2017-07-17T03:30:49.204Z,66.10
2017-07-17T03:33:18.069Z,66.10
2017-07-17T03:35:46.961Z,66.10
2017-07-17T03:38:16.618Z,66.40
2017-07-17T03:40:45.496Z,66.30
2017-07-17T03:43:30.432Z,66.30
2017-07-17T03:46:01.206Z,66.40
2017-07-17T03:48:30.118Z,66.40
2017-07-17T03:50:59.485Z,66.40
2017-07-17T03:53:28.373Z,66.50
2017-07-17T03:55:57.254Z,66.60
2017-07-17T03:58:26.900Z,66.70
2017-07-17T04:00:55.777Z,66.70
2017-07-17T04:03:24.648Z,66.80
2017-07-17T04:05:53.542Z,67.00
2017-07-17T04:08:22.426Z,67.00
2017-07-17T04:10:52.062Z,67.20
2017-07-17T04:13:20.944Z,67.20
2017-07-17T04:15:49.831Z,67.40
2017-07-17T04:18:18.705Z,67.50
2017-07-17T04:20:48.341Z,67.50
2017-07-17T04:23:17.221Z,67.50
2017-07-17T04:25:46.080Z,67.60
2017-07-17T04:28:14.961Z,67.80
2017-07-17T04:30:43.850Z,68.00
2017-07-17T04:33:12.724Z,68.60
2017-07-17T04:35:41.605Z,68.10
2017-07-17T04:38:10.481Z,68.30
2017-07-17T04:40:39.357Z,68.30
2017-07-17T04:43:08.210Z,68.50
2017-07-17T04:45:37.084Z,68.70
2017-07-17T04:48:05.986Z,68.80
2017-07-17T04:50:34.878Z,68.80
2017-07-17T04:53:03.757Z,69.00
2017-07-17T04:55:32.657Z,69.00
2017-07-17T04:58:01.531Z,69.10
2017-07-17T05:00:30.375Z,69.30
2017-07-17T05:02:59.988Z,69.40
2017-07-17T05:05:28.880Z,69.40
2017-07-17T05:07:57.743Z,69.50
2017-07-17T05:10:26.634Z,69.70
2017-07-17T05:12:55.522Z,69.80
2017-07-17T05:15:24.407Z,69.80
2017-07-17T05:17:53.293Z,70.00
2017-07-17T05:20:22.145Z,70.20
2017-07-17T05:22:51.037Z,70.20
2017-07-17T05:25:19.926Z,70.40
2017-07-17T05:27:48.815Z,70.60
2017-07-17T05:30:17.741Z,70.70
2017-07-17T05:32:46.460Z,70.80
2017-07-17T05:35:15.945Z,71.10
2017-07-17T05:37:44.825Z,71.00
2017-07-17T05:40:13.684Z,71.10
2017-07-17T05:42:42.537Z,71.20
2017-07-17T05:45:11.411Z,71.40
2017-07-17T05:47:40.300Z,71.50
2017-07-17T05:50:09.157Z,71.60
2017-07-17T05:52:38.041Z,71.80
2017-07-17T05:55:06.891Z,72.10
2017-07-17T05:57:35.773Z,72.20
2017-07-17T06:00:03.951Z,72.20
2017-07-17T06:02:32.805Z,72.60
2017-07-17T06:05:01.653Z,72.80
2017-07-17T06:07:31.310Z,73.10
2017-07-17T06:10:00.183Z,73.10
2017-07-17T06:12:29.045Z,73.30
2017-07-17T06:14:58.695Z,73.80
2017-07-17T06:17:27.578Z,73.70
2017-07-17T06:19:56.475Z,74.00
2017-07-17T06:22:25.359Z,74.20
2017-07-17T06:24:54.306Z,74.40
2017-07-17T06:27:23.200Z,74.30
2017-07-17T06:29:52.874Z,75.10
2017-07-17T06:32:21.760Z,75.00
2017-07-17T06:34:50.641Z,75.70
2017-07-17T06:37:19.528Z,76.10
2017-07-17T06:39:48.408Z,76.40
2017-07-17T06:42:17.281Z,76.40
2017-07-17T06:44:46.156Z,76.70
2017-07-17T06:47:15.002Z,76.60
2017-07-17T06:49:43.885Z,76.80
2017-07-17T06:52:12.760Z,77.10
2017-07-17T06:54:41.644Z,77.40
2017-07-17T06:57:10.201Z,78.10
2017-07-17T06:59:39.049Z,78.70
2017-07-17T07:02:07.947Z,78.70
2017-07-17T07:04:36.853Z,78.90
2017-07-17T07:07:05.757Z,79.20
2017-07-17T07:09:34.655Z,79.40
2017-07-17T07:12:03.567Z,79.50
2017-07-17T07:14:33.220Z,80.10
2017-07-17T07:17:02.108Z,80.00
2017-07-17T07:19:30.981Z,80.30
2017-07-17T07:21:59.868Z,80.40
2017-07-17T07:24:28.731Z,80.40
2017-07-17T07:26:57.613Z,80.20
2017-07-17T07:29:26.462Z,79.80
2017-07-17T07:31:55.305Z,79.70
2017-07-17T07:34:24.010Z,79.60
2017-07-17T07:36:52.888Z,79.40
2017-07-17T07:39:21.772Z,79.50
2017-07-17T07:41:50.485Z,79.50
2017-07-17T07:44:20.132Z,79.30
2017-07-17T07:46:49.010Z,79.20
2017-07-17T07:49:17.893Z,79.20
2017-07-17T07:51:46.792Z,79.10
2017-07-17T07:54:15.676Z,78.80
2017-07-17T07:56:44.562Z,78.80
2017-07-17T07:59:14.213Z,78.60
2017-07-17T08:01:43.122Z,78.60
2017-07-17T08:04:12.018Z,78.30
2017-07-17T08:06:40.893Z,78.20
2017-07-17T08:09:09.756Z,78.00
2017-07-17T08:11:38.660Z,77.90
2017-07-17T08:14:07.562Z,77.40
2017-07-17T08:16:36.446Z,77.10
2017-07-17T08:19:05.316Z,77.00
2017-07-17T08:21:34.194Z,76.80
2017-07-17T08:24:03.076Z,76.60
2017-07-17T08:26:32.735Z,76.40
2017-07-17T08:29:01.640Z,76.30
2017-07-17T08:31:30.533Z,76.60
2017-07-17T08:33:59.434Z,77.00
2017-07-17T08:36:28.329Z,77.40
2017-07-17T08:38:57.186Z,77.60
2017-07-17T08:41:26.098Z,77.40
2017-07-17T08:43:54.997Z,77.40
2017-07-17T08:46:23.906Z,77.10
2017-07-17T08:48:53.567Z,76.70
2017-07-17T08:51:22.460Z,76.60
2017-07-17T08:53:51.362Z,75.90
2017-07-17T08:56:20.271Z,75.40
2017-07-17T08:58:49.174Z,75.30
2017-07-17T09:01:18.062Z,75.50
2017-07-17T09:03:48.034Z,75.50
2017-07-17T09:06:16.933Z,75.20
2017-07-17T09:08:45.840Z,75.10
2017-07-17T09:11:14.733Z,74.90
2017-07-17T09:13:43.638Z,74.60
2017-07-17T09:16:12.557Z,74.50
2017-07-17T09:18:41.483Z,74.80
2017-07-17T09:21:11.857Z,75.20
2017-07-17T09:23:40.757Z,75.30
2017-07-17T09:26:10.419Z,75.20
2017-07-17T09:28:39.326Z,75.10
2017-07-17T09:31:08.220Z,75.10
2017-07-17T09:33:37.126Z,75.10
2017-07-17T09:36:06.029Z,75.20
2017-07-17T09:38:34.936Z,75.10
2017-07-17T09:41:03.861Z,74.90
2017-07-17T09:43:32.756Z,74.80
2017-07-17T09:46:01.650Z,74.80
2017-07-17T09:48:30.536Z,74.80
2017-07-17T09:50:59.451Z,74.80
2017-07-17T09:53:28.352Z,74.50
2017-07-17T09:55:57.248Z,74.30
2017-07-17T09:58:26.146Z,74.40
2017-07-17T10:00:55.056Z,74.00
2017-07-17T10:03:24.730Z,73.60
2017-07-17T10:05:53.634Z,73.50
2017-07-17T10:08:22.524Z,73.40
2017-07-17T10:10:51.422Z,73.40
2017-07-17T10:13:20.283Z,73.40
2017-07-17T10:15:49.207Z,73.00
2017-07-17T10:18:18.101Z,72.90
2017-07-17T10:20:46.999Z,73.00
2017-07-17T10:23:15.896Z,72.90
2017-07-17T10:25:45.369Z,73.80
2017-07-17T10:28:14.273Z,73.50
2017-07-17T10:30:43.169Z,73.70
2017-07-17T10:33:12.067Z,73.80
2017-07-17T10:35:40.964Z,74.10
2017-07-17T10:38:09.862Z,73.90
2017-07-17T10:40:39.535Z,73.40
2017-07-17T10:43:08.434Z,73.40
2017-07-17T10:45:37.291Z,73.60
2017-07-17T10:48:06.195Z,72.90
2017-07-17T10:50:35.046Z,72.40
2017-07-17T10:53:03.931Z,71.60
2017-07-17T10:55:32.817Z,71.50
2017-07-17T10:58:01.656Z,71.60
2017-07-17T11:00:30.179Z,71.00
2017-07-17T11:02:59.069Z,71.20
2017-07-17T11:05:27.960Z,71.00
2017-07-17T11:07:56.822Z,70.60
2017-07-17T11:10:25.671Z,70.20
2017-07-17T11:12:55.308Z,69.80
2017-07-17T11:15:24.158Z,69.70
2017-07-17T11:17:53.036Z,69.50
2017-07-17T11:20:21.906Z,69.10
2017-07-17T11:22:50.793Z,68.60
2017-07-17T11:25:19.660Z,68.20
2017-07-17T11:27:48.552Z,67.50
2017-07-17T11:30:17.438Z,67.00
2017-07-17T11:32:46.314Z,66.80
2017-07-17T11:35:15.272Z,66.30
2017-07-17T11:37:44.165Z,65.60
2017-07-17T11:40:13.050Z,65.10
2017-07-17T11:42:41.942Z,65.10
2017-07-17T11:45:10.833Z,65.80
2017-07-17T12:00:20.211Z,64.70
2017-07-17T12:02:49.089Z,64.60
2017-07-17T12:07:46.647Z,64.00
2017-07-17T12:10:15.540Z,64.20
2017-07-17T12:12:44.431Z,63.70
2017-07-17T12:15:13.322Z,63.00
2017-07-17T12:17:42.187Z,63.00
2017-07-17T12:20:11.083Z,62.60
2017-07-17T12:22:39.979Z,62.90
2017-07-17T12:25:08.866Z,62.90
2017-07-17T12:27:37.767Z,62.70
2017-07-17T12:30:06.655Z,62.90
2017-07-17T12:32:35.541Z,62.80
2017-07-17T12:35:04.458Z,63.00
2017-07-17T12:37:33.341Z,62.60
2017-07-17T12:40:02.234Z,61.90
2017-07-17T12:42:31.124Z,61.70
2017-07-17T12:45:00.018Z,61.80
2017-07-17T12:47:28.873Z,62.30
2017-07-17T12:49:57.760Z,62.20
2017-07-17T12:52:26.650Z,62.30
2017-07-17T12:54:55.537Z,61.80
2017-07-17T12:57:24.382Z,61.10
2017-07-17T12:59:53.238Z,61.20
2017-07-17T13:02:22.114Z,60.80
2017-07-17T13:04:51.022Z,61.10
2017-07-17T13:07:19.901Z,61.00
2017-07-17T13:09:48.791Z,61.10
2017-07-17T13:12:17.678Z,60.70
2017-07-17T13:14:46.556Z,60.90
2017-07-17T13:17:15.440Z,61.20
2017-07-17T13:19:44.330Z,60.40
2017-07-17T13:22:13.987Z,59.40
2017-07-17T13:24:42.878Z,59.40
2017-07-17T13:27:11.718Z,58.70
2017-07-17T13:29:40.385Z,58.00
2017-07-17T13:32:09.275Z,57.50
2017-07-17T13:34:38.666Z,56.90
2017-07-17T13:37:07.559Z,57.20
2017-07-17T13:39:36.186Z,57.80
2017-07-17T13:42:05.089Z,57.40
2017-07-17T13:44:33.686Z,57.10
2017-07-17T13:47:02.566Z,57.00
2017-07-17T13:49:31.161Z,57.00
2017-07-17T13:51:59.785Z,56.40
2017-07-17T13:54:28.397Z,56.30
2017-07-17T13:56:57.010Z,56.50
2017-07-17T13:59:25.628Z,56.10
2017-07-17T14:01:54.984Z,55.60
2017-07-17T14:04:23.684Z,55.60
2017-07-17T14:06:52.314Z,55.30
2017-07-17T14:09:20.599Z,54.90
2017-07-17T14:11:49.177Z,54.90
2017-07-17T14:14:17.768Z,55.70
2017-07-17T14:16:46.402Z,56.30
2017-07-17T14:19:15.026Z,56.40
2017-07-17T14:21:44.493Z,55.50
2017-07-17T14:24:13.119Z,55.50
2017-07-17T14:26:41.745Z,55.40
2017-07-17T14:29:10.365Z,55.10
2017-07-17T14:31:38.980Z,55.20
2017-07-17T14:34:07.570Z,55.30
2017-07-17T14:36:36.195Z,55.20
2017-07-17T14:39:04.125Z,55.50
2017-07-17T14:41:32.757Z,56.00
2017-07-17T14:46:40.389Z,56.60
2017-07-17T14:49:09.023Z,56.30
2017-07-17T14:51:37.651Z,56.20
2017-07-17T14:54:06.239Z,56.10
2017-07-17T14:56:34.857Z,56.50
2017-07-17T14:59:03.517Z,56.60
2017-07-17T15:01:32.129Z,57.00
2017-07-17T15:04:00.752Z,57.50
2017-07-17T15:06:30.082Z,57.80
2017-07-17T15:08:58.698Z,57.80
2017-07-17T15:11:27.583Z,57.80
2017-07-17T15:13:56.474Z,58.20
2017-07-17T15:16:25.365Z,58.50
2017-07-17T15:18:54.261Z,58.50
2017-07-17T15:21:23.150Z,58.60
2017-07-17T15:23:52.034Z,58.50
2017-07-17T15:26:20.940Z,58.50
2017-07-17T15:28:49.835Z,58.30
2017-07-17T15:31:18.721Z,58.00
2017-07-17T15:33:47.602Z,57.50
2017-07-17T15:36:17.267Z,57.50
2017-07-17T15:38:46.156Z,57.10
2017-07-17T15:41:15.108Z,56.90
2017-07-17T15:43:43.999Z,57.10
2017-07-17T15:46:12.630Z,57.20
2017-07-17T15:48:41.528Z,57.80
2017-07-17T15:51:10.414Z,57.90
2017-07-17T15:53:39.281Z,57.70
2017-07-17T15:56:07.918Z,57.80
2017-07-17T15:58:36.777Z,57.90
2017-07-17T16:01:06.420Z,57.80
2017-07-17T16:03:35.301Z,57.80
2017-07-17T16:06:04.177Z,58.20
2017-07-17T16:08:33.082Z,58.60
2017-07-17T16:11:01.982Z,58.90
2017-07-17T16:13:30.880Z,59.20
2017-07-17T16:15:59.766Z,59.50
2017-07-17T16:18:29.996Z,59.80
2017-07-17T16:20:58.889Z,59.90
2017-07-17T16:23:27.791Z,60.10
2017-07-17T16:25:56.697Z,60.30
2017-07-17T16:28:25.625Z,60.60
2017-07-17T16:30:54.534Z,60.80
2017-07-17T16:33:23.454Z,61.00
2017-07-17T16:35:52.383Z,61.40
2017-07-17T16:38:22.044Z,61.70
2017-07-17T16:40:50.949Z,61.70
2017-07-17T16:43:19.991Z,61.70
2017-07-17T16:45:49.146Z,61.70
2017-07-17T16:48:18.299Z,61.70
2017-07-17T16:50:47.408Z,61.70
2017-07-17T16:53:16.502Z,61.80
2017-07-17T16:55:45.548Z,61.90
2017-07-17T16:58:14.703Z,62.10
2017-07-17T17:00:43.814Z,62.10
2017-07-17T17:03:12.994Z,62.10
2017-07-17T17:05:42.173Z,62.40
2017-07-17T17:08:11.221Z,62.60
2017-07-17T17:10:40.391Z,62.50
2017-07-17T17:13:09.395Z,62.60
2017-07-17T17:15:38.616Z,62.50
2017-07-17T17:18:08.189Z,62.50
2017-07-17T17:20:37.433Z,62.30
2017-07-17T17:23:06.550Z,62.60
2017-07-17T17:25:36.439Z,63.10
2017-07-17T17:28:05.351Z,63.00
2017-07-17T17:30:34.270Z,63.20
2017-07-17T17:33:03.139Z,63.40
2017-07-17T17:35:32.036Z,63.40
2017-07-17T17:38:01.722Z,63.70
2017-07-17T17:40:30.634Z,63.70
2017-07-17T17:42:59.537Z,63.80
2017-07-17T17:45:28.467Z,63.80
2017-07-17T17:47:57.386Z,63.80
2017-07-17T17:50:26.303Z,63.90
2017-07-17T17:52:55.213Z,63.80
2017-07-17T17:55:24.128Z,63.90
2017-07-17T17:57:53.042Z,63.80
2017-07-17T18:00:21.944Z,63.80
2017-07-17T18:02:50.853Z,63.70
2017-07-17T18:05:19.717Z,63.70
2017-07-17T18:07:48.612Z,63.70
2017-07-17T18:10:17.526Z,63.70
2017-07-17T18:12:46.438Z,63.70
2017-07-17T18:15:16.104Z,63.70
2017-07-17T18:17:45.018Z,63.60
2017-07-17T18:20:13.937Z,63.80
2017-07-17T18:22:42.843Z,63.80
2017-07-17T18:25:12.561Z,63.70
2017-07-17T18:27:41.186Z,63.30
2017-07-17T18:30:10.089Z,63.20
2017-07-17T18:32:39.042Z,63.30
2017-07-17T18:35:07.939Z,63.30
2017-07-17T18:37:36.844Z,63.30
2017-07-17T18:40:05.751Z,63.40
2017-07-17T18:42:34.670Z,63.40
2017-07-17T18:45:04.656Z,63.60
2017-07-17T18:47:33.566Z,63.60
2017-07-17T18:50:02.457Z,63.70
2017-07-17T18:52:31.367Z,63.70
2017-07-17T18:55:01.109Z,63.90
2017-07-17T18:57:30.027Z,63.90
2017-07-17T18:59:58.952Z,64.10
2017-07-17T19:02:27.833Z,64.20
2017-07-17T19:04:56.723Z,64.30
2017-07-17T19:07:25.624Z,64.50
2017-07-17T19:09:54.505Z,64.50
2017-07-17T19:12:24.226Z,64.60
2017-07-17T19:14:53.897Z,64.80
2017-07-17T19:17:22.809Z,64.70
2017-07-17T19:19:51.664Z,64.90
2017-07-17T19:22:20.562Z,65.10
2017-07-17T19:24:50.161Z,65.20
2017-07-17T19:27:19.058Z,65.40
2017-07-17T19:29:47.963Z,65.60
2017-07-17T19:32:16.865Z,65.60
2017-07-17T19:34:45.774Z,65.60
2017-07-17T19:37:14.623Z,65.70
2017-07-17T19:39:43.483Z,65.80
2017-07-17T19:42:13.156Z,66.20
2017-07-17T19:44:42.052Z,66.10
2017-07-17T19:47:10.951Z,66.50
2017-07-17T19:49:39.833Z,66.60
2017-07-17T19:52:11.351Z,66.60
2017-07-17T19:54:41.177Z,66.70
2017-07-17T19:57:10.090Z,66.80
2017-07-17T19:59:40.534Z,66.90
2017-07-17T20:02:09.452Z,67.00
2017-07-17T20:04:38.371Z,67.30
2017-07-17T20:07:07.286Z,68.20
2017-07-17T20:09:36.165Z,67.80
2017-07-17T20:12:05.014Z,68.20
2017-07-17T20:14:33.867Z,68.40
2017-07-17T20:17:02.769Z,68.40
2017-07-17T20:19:31.652Z,68.80
2017-07-17T20:22:00.550Z,69.30
2017-07-17T20:24:29.443Z,69.40
2017-07-17T20:26:58.352Z,69.40
2017-07-17T20:29:27.273Z,69.50
2017-07-17T20:31:56.171Z,69.60
2017-07-17T20:34:25.069Z,69.70
2017-07-17T20:36:53.961Z,69.60
2017-07-17T20:39:22.873Z,69.70
2017-07-17T20:41:51.773Z,69.90
2017-07-17T20:44:20.669Z,70.00
2017-07-17T20:46:49.575Z,70.30
2017-07-17T20:49:18.466Z,70.80
2017-07-17T20:51:47.324Z,71.30
2017-07-17T20:54:16.216Z,71.60
2017-07-17T20:56:45.133Z,71.80
2017-07-17T20:59:14.042Z,71.90
2017-07-17T21:01:42.947Z,71.90
2017-07-17T21:04:12.624Z,72.20
2017-07-17T21:06:41.543Z,72.10
2017-07-17T21:09:10.444Z,72.20
2017-07-17T21:11:39.362Z,72.20
2017-07-17T21:14:08.262Z,72.20
2017-07-17T21:16:37.157Z,72.20
2017-07-17T21:19:06.070Z,72.40
2017-07-17T21:21:34.975Z,72.40
2017-07-17T21:24:03.878Z,72.40
2017-07-17T21:26:32.779Z,72.50
2017-07-17T21:29:02.444Z,72.90
2017-07-17T21:31:31.366Z,72.70
2017-07-17T21:34:00.270Z,73.00
2017-07-17T21:36:29.166Z,73.00
2017-07-17T21:38:58.834Z,73.10
2017-07-17T21:41:27.732Z,73.00
2017-07-17T21:43:56.633Z,73.20
2017-07-17T21:46:25.541Z,73.30
2017-07-17T21:48:54.446Z,73.40
2017-07-17T21:51:23.358Z,73.40
2017-07-17T21:53:52.224Z,73.30
2017-07-17T21:56:21.898Z,74.20
2017-07-17T21:58:50.818Z,73.70
2017-07-17T22:01:19.730Z,74.10
2017-07-17T22:03:49.406Z,74.10
2017-07-17T22:06:18.316Z,74.20
2017-07-17T22:08:47.209Z,74.40
2017-07-17T22:11:16.101Z,74.60
2017-07-17T22:13:45.019Z,74.70
2017-07-17T22:16:13.925Z,74.70
2017-07-17T22:18:42.826Z,74.80
2017-07-17T22:21:11.734Z,74.80
2017-07-17T22:23:41.311Z,75.00
2017-07-17T22:26:09.876Z,75.10
2017-07-17T22:28:38.594Z,75.00
2017-07-17T22:31:07.489Z,75.20
2017-07-17T22:33:36.395Z,75.40
2017-07-17T22:36:05.304Z,75.50
2017-07-17T22:38:34.214Z,75.60
2017-07-17T22:41:03.126Z,75.60
2017-07-17T22:43:32.045Z,75.70
2017-07-17T22:46:00.955Z,75.70
2017-07-17T22:48:29.870Z,75.80
2017-07-17T22:50:58.770Z,75.80
2017-07-17T22:53:27.639Z,75.90
2017-07-17T22:55:56.543Z,75.90
2017-07-17T22:58:25.451Z,75.90
2017-07-17T23:00:54.341Z,76.00
2017-07-17T23:03:23.254Z,76.10
2017-07-17T23:05:52.161Z,76.10
2017-07-17T23:08:21.067Z,76.10
2017-07-17T23:10:49.979Z,76.00
2017-07-17T23:13:18.878Z,76.10
2017-07-17T23:15:47.741Z,76.10
2017-07-17T23:18:16.631Z,76.00
2017-07-17T23:20:45.535Z,76.00
2017-07-17T23:23:14.440Z,76.20
2017-07-17T23:25:43.300Z,76.40
2017-07-17T23:28:12.203Z,76.70
2017-07-17T23:30:41.113Z,76.70
2017-07-17T23:33:10.022Z,76.80
2017-07-17T23:35:38.884Z,76.80
2017-07-17T23:38:07.757Z,77.00
2017-07-17T23:40:36.665Z,77.10
2017-07-17T23:43:05.561Z,77.20
2017-07-17T23:45:34.475Z,77.20
2017-07-17T23:48:03.377Z,77.20
2017-07-17T23:50:32.303Z,77.20
2017-07-17T23:53:01.205Z,77.20
2017-07-17T23:55:30.118Z,77.30
2017-07-17T23:57:59.023Z,77.30
